createdAt,value
2023-03-31T04:00:52.504Z,988.31
2023-03-31T04:01:53.519Z,988.31
2023-03-31T04:02:53.488Z,988.28
2023-03-31T04:03:53.461Z,988.26
2023-03-31T04:04:53.541Z,988.23
2023-03-31T04:05:53.433Z,988.15
2023-03-31T04:06:53.427Z,988.15
2023-03-31T04:07:53.419Z,988.11
2023-03-31T04:08:53.390Z,988.08
2023-03-31T04:09:53.385Z,988.06
2023-03-31T04:10:53.381Z,988.02
2023-03-31T04:11:53.395Z,987.98
2023-03-31T04:12:53.403Z,987.96
2023-03-31T04:13:53.366Z,987.94
2023-03-31T04:14:53.339Z,987.92
2023-03-31T04:15:53.358Z,987.93
2023-03-31T04:16:53.307Z,987.95
2023-03-31T04:17:53.398Z,987.96
2023-03-31T04:18:53.350Z,987.97
2023-03-31T04:19:53.327Z,987.97
2023-03-31T04:20:53.347Z,987.92
2023-03-31T04:21:53.276Z,987.88
2023-03-31T04:22:53.302Z,987.81
2023-03-31T04:23:53.261Z,987.75
2023-03-31T04:24:53.215Z,987.70
2023-03-31T04:25:53.212Z,987.69
2023-03-31T04:26:53.210Z,987.68
2023-03-31T04:27:53.254Z,987.68
2023-03-31T04:28:53.183Z,987.67
2023-03-31T04:29:53.189Z,987.67
2023-03-31T04:30:53.179Z,987.67
2023-03-31T04:31:53.304Z,987.65
2023-03-31T04:32:53.498Z,987.64
2023-03-31T04:33:53.136Z,987.65
2023-03-31T04:34:53.120Z,987.65
2023-03-31T04:35:53.208Z,987.64
2023-03-31T04:36:53.200Z,987.66
2023-03-31T04:37:53.135Z,987.67
2023-03-31T04:38:53.291Z,987.64
2023-03-31T04:39:53.068Z,987.61
2023-03-31T04:40:53.062Z,987.56
2023-03-31T04:41:53.091Z,987.49
2023-03-31T04:42:53.064Z,987.41
2023-03-31T04:43:53.021Z,987.31
2023-03-31T04:44:53.002Z,987.23
2023-03-31T04:45:53.047Z,987.23
2023-03-31T04:46:52.981Z,987.26
2023-03-31T04:47:53.055Z,987.30
2023-03-31T04:48:52.974Z,987.31
2023-03-31T04:49:52.953Z,987.32
2023-03-31T04:50:52.946Z,987.31
2023-03-31T04:51:52.943Z,987.28
2023-03-31T04:52:52.974Z,987.22
2023-03-31T04:53:52.909Z,987.17
2023-03-31T04:54:52.938Z,987.10
2023-03-31T04:55:52.928Z,987.04
2023-03-31T04:56:52.941Z,987.05
2023-03-31T04:57:52.911Z,987.05
2023-03-31T04:58:52.860Z,987.03
2023-03-31T04:59:52.924Z,987.03
2023-03-31T05:00:52.888Z,987.03
2023-03-31T05:01:52.824Z,987.04
2023-03-31T05:02:52.937Z,987.04
2023-03-31T05:03:52.835Z,987.03
2023-03-31T05:04:52.791Z,987.03
2023-03-31T05:05:52.787Z,987.01
2023-03-31T05:06:52.785Z,987.00
2023-03-31T05:07:52.768Z,986.99
2023-03-31T05:08:52.821Z,986.99
2023-03-31T05:09:52.752Z,986.96
2023-03-31T05:10:52.729Z,986.96
2023-03-31T05:11:52.750Z,986.94
2023-03-31T05:12:52.725Z,986.94
2023-03-31T05:13:52.724Z,986.94
2023-03-31T05:14:52.765Z,986.91
2023-03-31T05:15:52.720Z,986.90
2023-03-31T05:16:52.678Z,986.85
2023-03-31T05:17:52.716Z,986.88
2023-03-31T05:18:52.703Z,986.88
2023-03-31T05:19:52.676Z,986.88
2023-03-31T05:20:52.706Z,986.84
2023-03-31T05:21:52.626Z,986.82
2023-03-31T05:22:52.606Z,986.80
2023-03-31T05:23:52.632Z,986.81
2023-03-31T05:24:52.620Z,986.79
2023-03-31T05:25:52.596Z,986.78
2023-03-31T05:26:52.763Z,986.78
2023-03-31T05:27:52.595Z,986.79
2023-03-31T05:28:52.582Z,986.77
2023-03-31T05:29:52.574Z,986.74
2023-03-31T05:30:52.533Z,986.68
2023-03-31T05:31:52.637Z,986.66
2023-03-31T05:32:52.648Z,986.63
2023-03-31T05:33:52.548Z,986.62
2023-03-31T05:34:52.496Z,986.58
2023-03-31T05:35:52.496Z,986.61
2023-03-31T05:36:52.503Z,986.57
2023-03-31T05:37:52.475Z,986.57
2023-03-31T05:38:52.587Z,986.57
2023-03-31T05:39:52.439Z,986.56
2023-03-31T05:40:52.439Z,986.55
2023-03-31T05:41:52.436Z,986.53
2023-03-31T05:42:52.412Z,986.47
2023-03-31T05:43:52.407Z,986.41
2023-03-31T05:44:52.411Z,986.40
2023-03-31T05:45:52.456Z,986.39
2023-03-31T05:46:54.732Z,986.36
2023-03-31T05:47:51.407Z,986.32
2023-03-31T05:48:52.373Z,986.30
2023-03-31T05:49:52.330Z,986.27
2023-03-31T05:50:52.334Z,986.24
2023-03-31T05:51:52.321Z,986.24
2023-03-31T05:52:52.296Z,986.24
2023-03-31T05:53:52.329Z,986.26
2023-03-31T05:54:52.276Z,986.24
2023-03-31T05:55:52.264Z,986.25
2023-03-31T05:56:52.270Z,986.22
2023-03-31T05:57:52.278Z,986.17
2023-03-31T05:58:52.273Z,986.17
2023-03-31T05:59:52.218Z,986.11
2023-03-31T06:00:52.228Z,986.09
2023-03-31T06:01:52.304Z,986.09
2023-03-31T06:02:52.248Z,986.02
2023-03-31T06:03:52.237Z,986.06
2023-03-31T06:04:52.193Z,986.03
2023-03-31T06:05:52.160Z,985.99
2023-03-31T06:06:52.155Z,985.90
2023-03-31T06:07:52.139Z,985.90
2023-03-31T06:08:52.197Z,985.86
2023-03-31T06:09:52.137Z,985.86
2023-03-31T06:10:52.128Z,985.88
2023-03-31T06:11:52.092Z,985.86
2023-03-31T06:12:52.088Z,985.80
2023-03-31T06:13:52.088Z,985.79
2023-03-31T06:14:52.093Z,985.71
2023-03-31T06:15:52.062Z,985.68
2023-03-31T06:16:52.063Z,985.64
2023-03-31T06:17:52.050Z,985.58
2023-03-31T06:18:52.043Z,985.54
2023-03-31T06:19:52.022Z,985.59
2023-03-31T06:20:52.016Z,985.58
2023-03-31T06:21:52.023Z,985.60
2023-03-31T06:22:51.979Z,985.56
2023-03-31T06:23:52.016Z,985.55
2023-03-31T06:24:51.981Z,985.53
2023-03-31T06:25:52.151Z,985.54
2023-03-31T06:26:53.703Z,985.50
2023-03-31T06:27:51.947Z,985.47
2023-03-31T06:28:51.941Z,985.43
2023-03-31T06:29:51.922Z,985.34
2023-03-31T06:30:51.916Z,985.40
2023-03-31T06:31:51.913Z,985.37
2023-03-31T06:32:51.923Z,985.37
2023-03-31T06:33:51.887Z,985.35
2023-03-31T06:34:51.873Z,985.35
2023-03-31T06:35:51.878Z,985.32
2023-03-31T06:36:51.850Z,985.27
2023-03-31T06:37:51.815Z,985.25
2023-03-31T06:38:51.894Z,985.22
2023-03-31T06:39:52.139Z,985.20
2023-03-31T06:40:51.821Z,985.15
2023-03-31T06:41:51.774Z,985.17
2023-03-31T06:42:51.791Z,985.14
2023-03-31T06:43:51.784Z,985.12
2023-03-31T06:44:51.761Z,985.10
2023-03-31T06:45:53.792Z,985.06
2023-03-31T06:46:51.729Z,985.02
2023-03-31T06:47:51.798Z,985.04
2023-03-31T06:48:51.731Z,985.04
2023-03-31T06:49:51.682Z,985.03
2023-03-31T06:50:51.698Z,985.03
2023-03-31T06:51:51.661Z,985.01
2023-03-31T06:52:51.660Z,984.99
2023-03-31T06:53:51.671Z,984.98
2023-03-31T06:54:51.651Z,984.97
2023-03-31T06:55:51.643Z,984.97
2023-03-31T06:56:51.702Z,984.95
2023-03-31T06:57:51.607Z,984.94
2023-03-31T06:58:51.624Z,984.92
2023-03-31T06:59:51.590Z,984.86
2023-03-31T07:00:51.671Z,984.89
2023-03-31T07:01:51.581Z,984.87
2023-03-31T07:02:51.669Z,984.84
2023-03-31T07:03:51.624Z,984.83
2023-03-31T07:04:51.543Z,984.83
2023-03-31T07:05:51.561Z,984.81
2023-03-31T07:06:51.671Z,984.82
2023-03-31T07:07:51.522Z,984.80
2023-03-31T07:08:51.519Z,984.79
2023-03-31T07:09:51.482Z,984.78
2023-03-31T07:10:51.485Z,984.77
2023-03-31T07:11:51.473Z,984.75
2023-03-31T07:12:51.467Z,984.78
2023-03-31T07:13:52.489Z,984.78
2023-03-31T07:14:52.471Z,984.77
2023-03-31T07:15:51.562Z,984.74
2023-03-31T07:16:51.927Z,984.74
2023-03-31T07:17:51.525Z,984.74
2023-03-31T07:18:51.426Z,984.73
2023-03-31T07:19:51.530Z,984.72
2023-03-31T07:20:52.319Z,984.71
2023-03-31T07:21:54.341Z,984.70
2023-03-31T07:22:51.574Z,984.67
2023-03-31T07:23:51.439Z,984.67
2023-03-31T07:24:56.504Z,984.64
2023-03-31T07:25:51.427Z,984.65
2023-03-31T07:26:51.323Z,984.66
2023-03-31T07:27:51.336Z,984.65
2023-03-31T07:28:51.348Z,984.71
2023-03-31T07:29:51.477Z,984.70
2023-03-31T07:30:51.296Z,984.60
2023-03-31T07:31:51.535Z,984.59
2023-03-31T07:32:51.382Z,984.68
2023-03-31T07:33:51.239Z,984.58
2023-03-31T07:34:51.243Z,984.68
2023-03-31T07:36:00.295Z,984.70
2023-03-31T07:36:51.225Z,984.67
2023-03-31T07:37:51.206Z,984.67
2023-03-31T07:38:51.210Z,984.67
2023-03-31T07:39:51.183Z,984.66
2023-03-31T07:41:01.926Z,984.64
2023-03-31T07:41:51.217Z,984.66
2023-03-31T07:42:51.148Z,984.63
2023-03-31T07:43:51.122Z,984.65
2023-03-31T07:44:51.134Z,984.61
2023-03-31T07:45:51.133Z,984.61
2023-03-31T07:46:51.096Z,984.59
2023-03-31T07:47:51.196Z,984.56
2023-03-31T07:48:51.083Z,984.57
2023-03-31T07:49:51.068Z,984.57
2023-03-31T07:50:51.050Z,984.55
2023-03-31T07:51:51.046Z,984.56
2023-03-31T07:52:51.060Z,984.59
2023-03-31T07:53:51.014Z,984.58
2023-03-31T07:54:51.019Z,984.61
2023-03-31T07:55:50.990Z,984.63
2023-03-31T07:56:51.069Z,984.64
2023-03-31T07:57:51.003Z,984.65
2023-03-31T07:58:50.959Z,984.61
2023-03-31T07:59:51.119Z,984.51
2023-03-31T08:00:51.000Z,984.63
2023-03-31T08:01:51.013Z,984.61
2023-03-31T08:02:50.993Z,984.66
2023-03-31T08:03:50.997Z,984.58
2023-03-31T08:04:50.915Z,984.57
2023-03-31T08:05:52.289Z,984.60
2023-03-31T08:06:50.897Z,984.56
2023-03-31T08:07:50.895Z,984.56
2023-03-31T08:08:50.863Z,984.56
2023-03-31T08:09:50.879Z,984.52
2023-03-31T08:10:50.850Z,984.53
2023-03-31T08:11:50.830Z,984.51
2023-03-31T08:12:50.812Z,984.56
2023-03-31T08:13:50.825Z,984.53
2023-03-31T08:14:50.830Z,984.60
2023-03-31T08:15:50.836Z,984.52
2023-03-31T08:16:50.773Z,984.57
2023-03-31T08:17:50.843Z,984.52
2023-03-31T08:18:50.812Z,984.54
2023-03-31T08:19:50.773Z,984.53
2023-03-31T08:20:50.793Z,984.53
2023-03-31T08:21:50.722Z,984.54
2023-03-31T08:22:50.725Z,984.53
2023-03-31T08:23:50.706Z,984.56
2023-03-31T08:24:50.720Z,984.50
2023-03-31T08:25:50.699Z,984.54
2023-03-31T08:26:50.678Z,984.53
2023-03-31T08:27:50.681Z,984.50
2023-03-31T08:28:50.676Z,984.51
2023-03-31T08:29:50.763Z,984.51
2023-03-31T08:30:50.663Z,984.46
2023-03-31T08:31:50.659Z,984.43
2023-03-31T08:32:50.733Z,984.42
2023-03-31T08:33:50.652Z,984.42
2023-03-31T08:34:50.606Z,984.41
2023-03-31T08:35:50.638Z,984.40
2023-03-31T08:36:50.570Z,984.39
2023-03-31T08:37:50.555Z,984.39
2023-03-31T08:38:50.547Z,984.36
2023-03-31T08:39:50.531Z,984.34
2023-03-31T08:40:50.565Z,984.36
2023-03-31T08:41:50.523Z,984.35
2023-03-31T08:42:50.528Z,984.35
2023-03-31T08:43:50.559Z,984.36
2023-03-31T08:44:50.584Z,984.37
2023-03-31T08:45:50.519Z,984.38
2023-03-31T08:46:50.474Z,984.36
2023-03-31T08:47:50.482Z,984.34
2023-03-31T08:48:50.474Z,984.33
2023-03-31T08:49:50.442Z,984.35
2023-03-31T08:50:50.535Z,984.35
2023-03-31T08:51:50.412Z,984.33
2023-03-31T08:52:50.408Z,984.31
2023-03-31T08:53:50.415Z,984.34
2023-03-31T08:54:50.470Z,984.32
2023-03-31T08:55:50.402Z,984.31
2023-03-31T08:56:50.407Z,984.33
2023-03-31T08:57:50.387Z,984.37
2023-03-31T08:58:50.420Z,984.37
2023-03-31T08:59:50.332Z,984.37
2023-03-31T09:00:50.356Z,984.32
2023-03-31T09:01:56.400Z,984.34
2023-03-31T09:02:50.359Z,984.33
2023-03-31T09:03:50.536Z,984.32
2023-03-31T09:04:50.285Z,984.32
2023-03-31T09:05:59.434Z,984.32
2023-03-31T09:06:50.272Z,984.31
2023-03-31T09:07:50.280Z,984.27
2023-03-31T09:08:50.316Z,984.23
2023-03-31T09:09:50.233Z,984.19
2023-03-31T09:10:50.254Z,984.19
2023-03-31T09:11:50.269Z,984.27
2023-03-31T09:12:50.218Z,984.35
2023-03-31T09:13:50.188Z,984.31
2023-03-31T09:14:50.202Z,984.33
2023-03-31T09:15:50.193Z,984.29
2023-03-31T09:16:50.207Z,984.24
2023-03-31T09:17:50.176Z,984.29
2023-03-31T09:18:50.168Z,984.30
2023-03-31T09:19:50.121Z,984.33
2023-03-31T09:20:50.171Z,984.32
2023-03-31T09:21:50.113Z,984.29
2023-03-31T09:22:50.119Z,984.30
2023-03-31T09:23:50.143Z,984.27
2023-03-31T09:24:50.074Z,984.20
2023-03-31T09:25:50.051Z,984.13
2023-03-31T09:26:50.096Z,984.10
2023-03-31T09:27:50.067Z,984.04
2023-03-31T09:28:50.052Z,984.01
2023-03-31T09:29:50.052Z,984.00
2023-03-31T09:30:50.022Z,983.99
2023-03-31T09:31:50.126Z,983.98
2023-03-31T09:32:50.148Z,983.96
2023-03-31T09:33:50.042Z,983.97
2023-03-31T09:34:50.017Z,983.97
2023-03-31T09:35:52.088Z,983.93
2023-03-31T09:36:49.965Z,983.95
2023-03-31T09:37:49.972Z,983.95
2023-03-31T09:38:49.994Z,983.96
2023-03-31T09:39:49.960Z,983.97
2023-03-31T09:40:49.932Z,983.92
2023-03-31T09:41:50.013Z,983.89
2023-03-31T09:42:49.926Z,983.89
2023-03-31T09:43:49.915Z,983.86
2023-03-31T09:44:56.430Z,983.84
2023-03-31T09:46:05.770Z,983.79
2023-03-31T09:46:49.910Z,983.75
2023-03-31T09:47:49.965Z,983.73
2023-03-31T09:48:49.897Z,983.75
2023-03-31T09:49:53.587Z,983.75
2023-03-31T09:50:49.844Z,983.78
2023-03-31T09:51:49.846Z,983.73
2023-03-31T09:52:49.852Z,983.72
2023-03-31T09:53:49.810Z,983.66
2023-03-31T09:54:49.795Z,983.62
2023-03-31T09:55:49.796Z,983.62
2023-03-31T09:56:49.843Z,983.58
2023-03-31T09:57:49.769Z,983.60
2023-03-31T09:58:49.763Z,983.59
2023-03-31T09:59:49.742Z,983.57
2023-03-31T10:00:49.750Z,983.55
2023-03-31T10:01:49.782Z,983.53
2023-03-31T10:02:49.821Z,983.50
2023-03-31T10:03:49.757Z,983.48
2023-03-31T10:04:49.711Z,983.45
2023-03-31T10:05:49.714Z,983.48
2023-03-31T10:06:49.701Z,983.47
2023-03-31T10:07:49.656Z,983.41
2023-03-31T10:08:49.658Z,983.38
2023-03-31T10:09:49.643Z,983.36
2023-03-31T10:10:49.636Z,983.38
2023-03-31T10:11:49.627Z,983.37
2023-03-31T10:12:49.628Z,983.38
2023-03-31T10:13:49.606Z,983.38
2023-03-31T10:14:49.668Z,983.40
2023-03-31T10:15:49.604Z,983.39
2023-03-31T10:16:49.584Z,983.42
2023-03-31T10:17:54.855Z,983.40
2023-03-31T10:18:49.555Z,983.41
2023-03-31T10:19:49.567Z,983.40
2023-03-31T10:20:49.520Z,983.41
2023-03-31T10:21:49.509Z,983.39
2023-03-31T10:22:49.520Z,983.36
2023-03-31T10:23:49.499Z,983.32
2023-03-31T10:24:49.474Z,983.36
2023-03-31T10:25:49.465Z,983.36
2023-03-31T10:26:49.484Z,983.30
2023-03-31T10:27:49.453Z,983.32
2023-03-31T10:28:49.453Z,983.30
2023-03-31T10:29:49.447Z,983.28
2023-03-31T10:30:49.426Z,983.30
2023-03-31T10:31:49.466Z,983.28
2023-03-31T10:32:52.562Z,983.28
2023-03-31T10:33:49.397Z,983.29
2023-03-31T10:34:49.406Z,983.26
2023-03-31T10:35:49.387Z,983.26
2023-03-31T10:36:49.345Z,983.25
2023-03-31T10:37:49.347Z,983.26
2023-03-31T10:38:49.325Z,983.25
2023-03-31T10:39:49.330Z,983.21
2023-03-31T10:40:49.366Z,983.23
2023-03-31T10:41:49.308Z,983.25
2023-03-31T10:42:49.282Z,983.23
2023-03-31T10:43:49.288Z,983.21
2023-03-31T10:44:49.280Z,983.20
2023-03-31T10:45:49.250Z,983.20
2023-03-31T10:46:49.320Z,983.19
2023-03-31T10:47:49.324Z,983.16
2023-03-31T10:48:49.228Z,983.16
2023-03-31T10:49:49.242Z,983.12
2023-03-31T10:50:49.182Z,983.14
2023-03-31T10:51:49.221Z,983.13
2023-03-31T10:52:49.198Z,983.12
2023-03-31T10:53:49.174Z,983.11
2023-03-31T10:54:49.140Z,983.08
2023-03-31T10:55:49.170Z,983.02
2023-03-31T10:56:50.665Z,982.98
2023-03-31T10:57:49.140Z,982.96
2023-03-31T10:58:58.323Z,982.94
2023-03-31T10:59:49.096Z,982.91
2023-03-31T11:00:49.069Z,982.86
2023-03-31T11:01:49.111Z,982.83
2023-03-31T11:02:49.175Z,982.84
2023-03-31T11:03:49.190Z,982.87
2023-03-31T11:04:49.047Z,982.90
2023-03-31T11:05:49.042Z,982.89
2023-03-31T11:06:49.008Z,982.87
2023-03-31T11:07:49.047Z,982.85
2023-03-31T11:08:49.027Z,982.81
2023-03-31T11:09:48.989Z,982.83
2023-03-31T11:10:48.975Z,982.82
2023-03-31T11:11:48.967Z,982.76
2023-03-31T11:12:48.955Z,982.78
2023-03-31T11:13:48.977Z,982.80
2023-03-31T11:14:48.930Z,982.78
2023-03-31T11:15:48.932Z,982.78
2023-03-31T11:16:48.964Z,982.80
2023-03-31T11:17:48.908Z,982.76
2023-03-31T11:18:48.925Z,982.80
2023-03-31T11:19:48.889Z,982.79
2023-03-31T11:20:48.858Z,982.83
2023-03-31T11:21:48.855Z,982.81
2023-03-31T11:22:48.870Z,982.81
2023-03-31T11:23:48.891Z,982.79
2023-03-31T11:24:48.826Z,982.79
2023-03-31T11:25:48.808Z,982.81
2023-03-31T11:26:48.793Z,982.82
2023-03-31T11:27:48.807Z,982.81
2023-03-31T11:28:48.799Z,982.80
2023-03-31T11:29:48.816Z,982.82
2023-03-31T11:30:48.755Z,982.81
2023-03-31T11:31:48.855Z,982.81
2023-03-31T11:32:48.800Z,982.84
2023-03-31T11:33:48.752Z,982.85
2023-03-31T11:34:48.719Z,982.84
2023-03-31T11:35:48.767Z,982.87
2023-03-31T11:36:48.707Z,982.92
2023-03-31T11:37:48.683Z,982.91
2023-03-31T11:38:48.717Z,982.93
2023-03-31T11:39:48.660Z,982.93
2023-03-31T11:40:48.658Z,982.88
2023-03-31T11:41:48.684Z,982.87
2023-03-31T11:42:48.664Z,982.82
2023-03-31T11:43:48.629Z,982.79
2023-03-31T11:44:48.610Z,982.75
2023-03-31T11:45:48.649Z,982.76
2023-03-31T11:46:48.581Z,982.74
2023-03-31T11:47:48.631Z,982.66
2023-03-31T11:48:48.584Z,982.63
2023-03-31T11:49:48.566Z,982.64
2023-03-31T11:50:48.548Z,982.61
2023-03-31T11:51:48.548Z,982.62
2023-03-31T11:52:48.515Z,982.59
2023-03-31T11:53:48.568Z,982.61
2023-03-31T11:54:48.499Z,982.60
2023-03-31T11:55:48.509Z,982.56
2023-03-31T11:56:48.509Z,982.60
2023-03-31T11:57:48.474Z,982.59
2023-03-31T11:58:48.503Z,982.60
2023-03-31T11:59:48.452Z,982.56
2023-03-31T12:00:48.428Z,982.58
2023-03-31T12:01:48.424Z,982.59
2023-03-31T12:02:48.445Z,982.56
2023-03-31T12:03:48.438Z,982.54
2023-03-31T12:04:48.406Z,982.53
2023-03-31T12:05:48.413Z,982.53
2023-03-31T12:06:48.384Z,982.49
2023-03-31T12:07:48.377Z,982.48
2023-03-31T12:08:48.362Z,982.45
2023-03-31T12:09:48.398Z,982.49
2023-03-31T12:10:48.343Z,982.50
2023-03-31T12:11:48.335Z,982.48
2023-03-31T12:12:48.314Z,982.45
2023-03-31T12:13:48.306Z,982.46
2023-03-31T12:14:48.292Z,982.47
2023-03-31T12:15:48.329Z,982.51
2023-03-31T12:16:48.265Z,982.44
2023-03-31T12:17:48.270Z,982.38
2023-03-31T12:18:48.254Z,982.45
2023-03-31T12:19:48.291Z,982.45
2023-03-31T12:20:48.231Z,982.47
2023-03-31T12:21:48.261Z,982.48
2023-03-31T12:22:48.214Z,982.51
2023-03-31T12:23:48.192Z,982.55
2023-03-31T12:24:48.219Z,982.56
2023-03-31T12:25:48.179Z,982.66
2023-03-31T12:26:48.182Z,982.73
2023-03-31T12:27:48.150Z,982.80
2023-03-31T12:28:48.148Z,982.90
2023-03-31T12:29:48.205Z,982.83
2023-03-31T12:30:48.156Z,982.91
2023-03-31T12:31:48.194Z,982.96
2023-03-31T12:32:48.215Z,982.95
2023-03-31T12:33:48.103Z,982.85
2023-03-31T12:34:48.104Z,982.91
2023-03-31T12:35:48.156Z,982.91
2023-03-31T12:36:48.054Z,982.92
2023-03-31T12:37:48.052Z,982.86
2023-03-31T12:38:48.049Z,982.90
2023-03-31T12:39:48.052Z,982.89
2023-03-31T12:40:48.018Z,982.81
2023-03-31T12:41:48.012Z,982.88
2023-03-31T12:42:47.991Z,982.84
2023-03-31T12:43:47.991Z,982.83
2023-03-31T12:44:47.985Z,982.79
2023-03-31T12:45:47.988Z,982.74
2023-03-31T12:46:48.029Z,982.83
2023-03-31T12:47:48.008Z,982.84
2023-03-31T12:48:47.923Z,982.85
2023-03-31T12:49:47.952Z,982.81
2023-03-31T12:50:47.902Z,982.82
2023-03-31T12:51:47.905Z,982.85
2023-03-31T12:52:47.884Z,982.81
2023-03-31T12:53:47.877Z,982.82
2023-03-31T12:54:47.891Z,982.80
2023-03-31T12:55:47.868Z,982.83
2023-03-31T12:56:47.848Z,982.80
2023-03-31T12:57:47.829Z,982.81
2023-03-31T12:58:47.817Z,982.78
2023-03-31T12:59:47.845Z,982.74
2023-03-31T13:00:47.807Z,982.73
2023-03-31T13:01:47.824Z,982.74
2023-03-31T13:02:48.020Z,982.74
2023-03-31T13:03:47.784Z,982.71
2023-03-31T13:04:47.775Z,982.69
2023-03-31T13:05:47.757Z,982.67
2023-03-31T13:06:47.729Z,982.68
2023-03-31T13:07:47.732Z,982.66
2023-03-31T13:08:47.710Z,982.64
2023-03-31T13:09:47.794Z,982.65
2023-03-31T13:10:47.698Z,982.65
2023-03-31T13:11:47.680Z,982.62
2023-03-31T13:12:47.660Z,982.61
2023-03-31T13:13:59.786Z,982.61
2023-03-31T13:14:47.672Z,982.61
2023-03-31T13:15:47.648Z,982.57
2023-03-31T13:16:47.714Z,982.57
2023-03-31T13:17:47.684Z,982.56
2023-03-31T13:18:47.600Z,982.55
2023-03-31T13:19:47.646Z,982.51
2023-03-31T13:20:47.590Z,982.54
2023-03-31T13:21:47.669Z,982.53
2023-03-31T13:22:47.567Z,982.46
2023-03-31T13:23:47.556Z,982.49
2023-03-31T13:24:47.576Z,982.48
2023-03-31T13:25:47.538Z,982.46
2023-03-31T13:26:47.518Z,982.45
2023-03-31T13:27:47.542Z,982.43
2023-03-31T13:28:47.485Z,982.44
2023-03-31T13:29:47.525Z,982.43
2023-03-31T13:30:47.480Z,982.45
2023-03-31T13:31:47.491Z,982.43
2023-03-31T13:32:47.476Z,982.47
2023-03-31T13:33:47.451Z,982.46
2023-03-31T13:34:47.455Z,982.46
2023-03-31T13:35:47.477Z,982.45
2023-03-31T13:36:47.401Z,982.49
2023-03-31T13:37:47.399Z,982.49
2023-03-31T13:38:47.398Z,982.47
2023-03-31T13:39:47.381Z,982.42
2023-03-31T13:40:47.375Z,982.50
2023-03-31T13:41:47.354Z,982.50
2023-03-31T13:42:47.333Z,982.51
2023-03-31T13:43:47.326Z,982.52
2023-03-31T13:44:47.324Z,982.49
2023-03-31T13:45:47.440Z,982.53
2023-03-31T13:46:47.304Z,982.54
2023-03-31T13:47:47.325Z,982.53
2023-03-31T13:48:47.284Z,982.54
2023-03-31T13:49:47.268Z,982.57
2023-03-31T13:50:47.269Z,982.56
2023-03-31T13:51:47.269Z,982.59
2023-03-31T13:52:47.244Z,982.57
2023-03-31T13:53:47.223Z,982.58
2023-03-31T13:54:47.208Z,982.55
2023-03-31T13:55:47.219Z,982.57
2023-03-31T13:56:47.215Z,982.54
2023-03-31T13:57:47.183Z,982.55
2023-03-31T13:58:47.192Z,982.51
2023-03-31T13:59:47.170Z,982.50
2023-03-31T14:00:47.178Z,982.50
2023-03-31T14:01:47.187Z,982.49
2023-03-31T14:02:47.296Z,982.50
2023-03-31T14:03:47.290Z,982.48
2023-03-31T14:04:47.107Z,982.45
2023-03-31T14:05:47.116Z,982.44
2023-03-31T14:06:47.086Z,982.42
2023-03-31T14:07:47.120Z,982.41
2023-03-31T14:08:47.086Z,982.40
2023-03-31T14:09:47.071Z,982.38
2023-03-31T14:10:47.083Z,982.36
2023-03-31T14:11:47.025Z,982.33
2023-03-31T14:12:47.017Z,982.36
2023-03-31T14:13:47.017Z,982.28
2023-03-31T14:14:46.994Z,982.23
2023-03-31T14:15:47.041Z,982.21
2023-03-31T14:16:46.965Z,982.18
2023-03-31T14:17:47.032Z,982.18
2023-03-31T14:18:46.950Z,982.19
2023-03-31T14:19:46.940Z,982.16
2023-03-31T14:20:46.953Z,982.19
2023-03-31T14:21:46.951Z,982.20
2023-03-31T14:22:46.933Z,982.20
2023-03-31T14:23:46.904Z,982.23
2023-03-31T14:24:46.889Z,982.21
2023-03-31T14:25:46.925Z,982.21
2023-03-31T14:26:46.926Z,982.22
2023-03-31T14:27:46.866Z,982.23
2023-03-31T14:28:46.920Z,982.25
2023-03-31T14:29:46.846Z,982.21
2023-03-31T14:30:46.939Z,982.25
2023-03-31T14:31:46.852Z,982.24
2023-03-31T14:32:46.840Z,982.24
2023-03-31T14:33:46.800Z,982.22
2023-03-31T14:34:46.804Z,982.22
2023-03-31T14:35:46.800Z,982.19
2023-03-31T14:36:46.797Z,982.14
2023-03-31T14:37:46.783Z,982.10
2023-03-31T14:38:46.745Z,982.11
2023-03-31T14:39:46.797Z,982.06
2023-03-31T14:40:46.780Z,982.02
2023-03-31T14:41:46.723Z,982.02
2023-03-31T14:42:46.710Z,982.04
2023-03-31T14:43:46.713Z,982.01
2023-03-31T14:44:48.409Z,982.01
2023-03-31T14:45:46.700Z,982.00
2023-03-31T14:46:46.730Z,981.99
2023-03-31T14:47:46.712Z,981.99
2023-03-31T14:48:46.675Z,981.97
2023-03-31T14:49:46.637Z,981.98
2023-03-31T14:50:46.692Z,981.97
2023-03-31T14:51:46.611Z,981.96
2023-03-31T14:52:46.629Z,981.97
2023-03-31T14:53:46.592Z,981.96
2023-03-31T14:54:46.586Z,981.96
2023-03-31T14:55:58.072Z,981.97
2023-03-31T14:56:46.601Z,981.97
2023-03-31T14:57:46.562Z,981.97
2023-03-31T14:58:46.544Z,981.95
2023-03-31T14:59:46.565Z,981.93
2023-03-31T15:00:46.600Z,981.85
2023-03-31T15:01:46.530Z,981.89
2023-03-31T15:02:46.529Z,981.85
2023-03-31T15:03:46.489Z,981.84
2023-03-31T15:04:46.605Z,981.84
2023-03-31T15:05:48.853Z,981.81
2023-03-31T15:06:46.467Z,981.81
2023-03-31T15:07:46.449Z,981.78
2023-03-31T15:08:46.468Z,981.81
2023-03-31T15:09:46.449Z,981.82
2023-03-31T15:10:46.447Z,981.80
2023-03-31T15:11:46.457Z,981.81
2023-03-31T15:12:46.398Z,981.81
2023-03-31T15:14:00.626Z,981.77
2023-03-31T15:14:46.374Z,981.77
2023-03-31T15:15:46.364Z,981.77
2023-03-31T15:16:46.415Z,981.75
2023-03-31T15:17:46.411Z,981.75
2023-03-31T15:18:46.362Z,981.75
2023-03-31T15:19:46.322Z,981.77
2023-03-31T15:20:46.328Z,981.71
2023-03-31T15:21:46.320Z,981.68
2023-03-31T15:22:46.307Z,981.69
2023-03-31T15:23:46.306Z,981.67
2023-03-31T15:24:46.281Z,981.66
2023-03-31T15:25:46.274Z,981.66
2023-03-31T15:26:46.270Z,981.64
2023-03-31T15:27:46.252Z,981.58
2023-03-31T15:28:46.237Z,981.59
2023-03-31T15:29:46.217Z,981.58
2023-03-31T15:30:47.611Z,981.54
2023-03-31T15:31:46.316Z,981.53
2023-03-31T15:32:46.391Z,981.51
2023-03-31T15:33:46.224Z,981.50
2023-03-31T15:34:46.169Z,981.46
2023-03-31T15:35:46.211Z,981.45
2023-03-31T15:36:46.143Z,981.44
2023-03-31T15:37:46.128Z,981.42
2023-03-31T15:38:46.121Z,981.40
2023-03-31T15:39:46.112Z,981.39
2023-03-31T15:40:46.127Z,981.36
2023-03-31T15:41:46.109Z,981.35
2023-03-31T15:42:55.027Z,981.36
2023-03-31T15:43:46.110Z,981.33
2023-03-31T15:44:46.072Z,981.30
2023-03-31T15:45:46.078Z,981.29
2023-03-31T15:46:46.075Z,981.29
2023-03-31T15:47:46.088Z,981.28
2023-03-31T15:48:46.023Z,981.27
2023-03-31T15:49:46.002Z,981.25
2023-03-31T15:50:45.994Z,981.22
2023-03-31T15:51:45.989Z,981.24
2023-03-31T15:52:45.992Z,981.23
2023-03-31T15:53:45.988Z,981.23
2023-03-31T15:54:45.950Z,981.19
2023-03-31T15:55:45.952Z,981.22
2023-03-31T15:56:46.025Z,981.21
2023-03-31T15:57:45.931Z,981.18
2023-03-31T15:58:45.910Z,981.19
2023-03-31T15:59:54.690Z,981.18
2023-03-31T16:00:45.942Z,981.17
2023-03-31T16:01:45.945Z,981.17
2023-03-31T16:02:45.922Z,981.18
2023-03-31T16:03:45.857Z,981.14
2023-03-31T16:04:45.942Z,981.12
2023-03-31T16:05:54.565Z,981.12
2023-03-31T16:06:45.905Z,981.11
2023-03-31T16:07:45.832Z,981.11
2023-03-31T16:08:45.935Z,981.12
2023-03-31T16:09:45.798Z,981.09
2023-03-31T16:10:46.020Z,981.09
2023-03-31T16:11:45.809Z,981.08
2023-03-31T16:12:45.945Z,981.13
2023-03-31T16:13:45.793Z,981.08
2023-03-31T16:14:45.764Z,981.11
2023-03-31T16:15:45.848Z,981.15
2023-03-31T16:16:45.744Z,981.18
2023-03-31T16:17:45.766Z,981.22
2023-03-31T16:18:45.717Z,981.27
2023-03-31T16:19:45.686Z,981.25
2023-03-31T16:20:45.844Z,981.26
2023-03-31T16:21:45.696Z,981.26
2023-03-31T16:22:45.658Z,981.28
2023-03-31T16:23:45.699Z,981.34
2023-03-31T16:24:45.684Z,981.43
2023-03-31T16:25:45.700Z,981.50
2023-03-31T16:26:45.641Z,981.61
2023-03-31T16:27:45.639Z,981.74
2023-03-31T16:28:45.603Z,981.63